Current Conditions
Clear
Conditions



Pressure
1029.92 (mb) - 30.41 (inHG)
Visibility

10.0 (km) - 6.2 (miles)
   Temperature
5  °C
41°F
0  °C
Dewpoint
70  %
 Humidity
   Wind Speed
14  km/h
8  kts
9  mph
4.0  m/s
   Wind Direction
 250°
West South
West
   Airport Data
LELN
Location Leon 15 km (9.32 mi)
Metar :LELN 171630Z 25008KT 220V280 CAVOK 05/00 Q1030
Fri 17th January 18:30 pm
   Raw Metar Info
Raw METAR is the most common format in the world for the transmission of observational weather data. It is highly standardized through the International Civil Aviation Organization (ICAO), which allows it to be understood throughout most of the world.
   API Info
Data Provided by
https://www.checkwx.com/weather/LELN
   © Info
CSS/SVG/PHP scripts were developed by weather34.com for use in the weather34 template © 2015-2020

Guide Info provided by Metar-Wikipedia